Time;durP1;ratioP1;P1;durP2;ratioP2;P2;SDS_P1;SDS_P2;PMS_P1;PMS_P2;Temp;Humidity;BMP_temperature;BMP_pressure;BME280_temperature;BME280_humidity;BME280_pressure;Samples;Min_cycle;Max_cycle;Signal;HPM_P1;HPM_P2
2021/12/21 00:00:47;;;;;;;1.63;1.52;;;-2.40;99.90;;;;;;4809643;29;19947;-94
2021/12/21 00:03:19;;;;;;;1.83;1.45;;;-1.50;99.90;;;;;;4794139;29;20142;-94
2021/12/21 00:05:52;;;;;;;2.63;1.58;;;-0.40;99.90;;;;;;4809995;29;20053;-94
2021/12/21 00:08:21;;;;;;;1.67;1.48;;;-1.60;99.90;;;;;;4798531;29;20099;-95
2021/12/21 00:10:50;;;;;;;4.13;2.13;;;-2.30;99.90;;;;;;4794686;29;20146;-95
2021/12/21 00:13:36;;;;;;;2.95;1.60;;;-0.50;99.90;;;;;;4794217;29;20133;-93
2021/12/21 00:19:00;;;;;;;3.67;1.70;;;-2.30;99.90;;;;;;4809117;29;20046;-96
2021/12/21 00:21:44;;;;;;;1.60;1.50;;;-0.50;99.90;;;;;;4794121;29;20042;-94
2021/12/21 00:24:21;;;;;;;3.30;1.80;;;-0.80;99.90;;;;;;4786571;29;20055;-95
2021/12/21 00:26:50;;;;;;;1.30;1.20;;;-1.80;99.90;;;;;;4795594;29;20054;-94
2021/12/21 00:29:20;;;;;;;1.02;1.02;;;-1.80;99.90;;;;;;4793695;29;20387;-95
2021/12/21 00:32:07;;;;;;;1.50;1.38;;;-2.50;99.90;;;;;;4793827;29;20149;-94
2021/12/21 00:35:07;;;;;;;4.60;1.27;;;-2.20;99.90;;;;;;4811873;29;20065;-94
2021/12/21 00:37:42;;;;;;;2.72;1.30;;;-2.60;99.90;;;;;;4792712;29;20085;-94
2021/12/21 00:40:12;;;;;;;1.75;1.25;;;-0.60;99.90;;;;;;4791455;29;20043;-95
2021/12/21 00:42:41;;;;;;;2.00;0.93;;;-1.80;99.90;;;;;;4805388;29;20083;-94
2021/12/21 00:45:07;;;;;;;2.22;1.27;;;-1.40;99.90;;;;;;4776150;29;20051;-94
2021/12/21 00:47:40;;;;;;;1.42;1.20;;;-2.30;99.90;;;;;;4804716;29;20387;-94
2021/12/21 00:50:17;;;;;;;;;;;;;;;;;;;;;
2021/12/21 00:52:55;;;;;;;2.35;1.90;;;-1.80;99.90;;;;;;4807795;29;20088;-94
2021/12/21 00:55:26;;;;;;;1.58;1.15;;;-0.80;99.90;;;;;;4794060;29;20137;-94
2021/12/21 00:58:02;;;;;;;2.17;1.38;;;-1.00;99.90;;;;;;4780672;29;20051;-94
2021/12/21 01:00:30;;;;;;;4.50;1.92;;;-0.80;99.90;;;;;;4808561;29;20050;-94
2021/12/21 01:03:05;;;;;;;2.95;1.63;;;-1.90;99.90;;;;;;4793467;29;20082;-94
2021/12/21 01:05:45;;;;;;;3.40;1.55;;;-1.20;99.90;;;;;;4790883;29;20063;-95
2021/12/21 01:08:18;;;;;;;2.50;1.92;;;-1.90;99.90;;;;;;4807224;29;20054;-96
2021/12/21 01:13:24;;;;;;;2.67;0.93;;;-1.60;99.90;;;;;;4810872;29;20055;-96
2021/12/21 01:18:38;;;;;;;3.30;1.25;;;-3.10;99.90;;;;;;4808194;29;20050;-96
2021/12/21 01:21:16;;;;;;;4.72;1.90;;;-2.60;99.90;;;;;;4808760;29;20057;-95
2021/12/21 01:24:10;;;;;;;2.15;1.67;;;-1.30;99.90;;;;;;4793472;29;20058;-96
2021/12/21 01:29:24;;;;;;;3.30;1.48;;;-1.10;99.90;;;;;;4808284;29;20066;-96
2021/12/21 01:34:44;;;;;;;1.40;1.30;;;-1.40;99.90;;;;;;4808525;29;20050;-95
2021/12/21 01:37:38;;;;;;;1.83;1.10;;;-1.10;99.90;;;;;;4793346;29;20051;-93
2021/12/21 01:40:25;;;;;;;2.22;1.33;;;-1.60;99.90;;;;;;4796940;29;20520;-95
2021/12/21 01:51:15;;;;;;;1.42;1.30;;;-1.70;99.90;;;;;;4799178;29;20058;-95
2021/12/21 01:53:52;;;;;;;1.88;1.77;;;-2.50;99.90;;;;;;4796382;29;20052;-96
2021/12/21 01:56:23;;;;;;;2.45;2.25;;;-1.70;99.90;;;;;;4793320;29;20051;-95
2021/12/21 01:58:56;;;;;;;2.45;2.10;;;-1.60;99.90;;;;;;4796438;29;20046;-95
2021/12/21 02:01:35;;;;;;;;;;;;;;;;;;;;;
2021/12/21 02:04:07;;;;;;;2.15;1.75;;;-2.30;99.90;;;;;;4826475;29;20057;-95
2021/12/21 02:06:43;;;;;;;1.65;1.55;;;-1.20;99.90;;;;;;4796423;29;20054;-95
2021/12/21 02:09:08;;;;;;;1.48;1.38;;;-1.30;99.90;;;;;;4800889;29;20578;-95
2021/12/21 02:11:37;;;;;;;2.55;1.60;;;-2.30;99.90;;;;;;4796682;29;20089;-95
2021/12/21 02:14:05;;;;;;;2.80;2.10;;;-2.30;99.90;;;;;;4815250;29;20134;-95
2021/12/21 02:16:53;;;;;;;3.28;1.38;;;-2.30;99.90;;;;;;4831249;29;20065;-96
2021/12/21 02:19:42;;;;;;;3.40;1.63;;;-3.10;99.90;;;;;;4825135;29;20050;-96
2021/12/21 02:22:17;;;;;;;1.90;1.52;;;-1.90;99.90;;;;;;4799676;29;20501;-96
2021/12/21 02:25:00;;;;;;;2.30;0.82;;;-1.50;99.90;;;;;;4797848;29;20104;-96
2021/12/21 02:27:29;;;;;;;3.05;1.02;;;-1.40;99.90;;;;;;4800937;29;20050;-96
2021/12/21 02:29:55;;;;;;;2.08;1.25;;;-1.30;99.90;;;;;;4829210;29;20057;-96
2021/12/21 02:32:28;;;;;;;2.10;1.23;;;-1.60;99.90;;;;;;4797572;29;20122;-95
2021/12/21 02:34:56;;;;;;;1.05;0.70;;;-1.70;99.90;;;;;;4796156;29;20091;-96
2021/12/21 02:37:25;;;;;;;1.98;1.38;;;-1.80;99.90;;;;;;4797148;29;20082;-95
2021/12/21 02:39:53;;;;;;;1.70;1.60;;;-2.90;99.90;;;;;;4799000;29;20058;-95
2021/12/21 02:42:24;;;;;;;3.03;1.77;;;-2.50;99.90;;;;;;4813064;29;20083;-96
2021/12/21 02:44:56;;;;;;;1.08;1.05;;;-2.40;99.90;;;;;;4814142;29;20074;-96
2021/12/21 02:47:22;;;;;;;1.35;1.33;;;-1.70;99.90;;;;;;4814090;29;20514;-96
2021/12/21 02:49:51;;;;;;;1.83;1.63;;;-1.60;99.90;;;;;;4813465;29;20046;-96
2021/12/21 02:52:17;;;;;;;1.00;1.00;;;-2.60;99.90;;;;;;4813505;29;20050;-95
2021/12/21 02:54:48;;;;;;;2.40;1.42;;;-2.50;99.90;;;;;;4814243;29;20118;-96
2021/12/21 02:57:14;;;;;;;6.53;1.50;;;-1.80;99.90;;;;;;4799020;29;20050;-96
2021/12/21 02:59:47;;;;;;;3.10;2.42;;;-2.20;99.90;;;;;;4828688;29;20046;-96
2021/12/21 03:02:17;;;;;;;1.13;1.08;;;-2.10;99.90;;;;;;4813541;29;20081;-96
2021/12/21 03:04:47;;;;;;;1.58;1.25;;;-1.90;99.90;;;;;;4828932;29;20100;-96
2021/12/21 03:09:54;;;;;;;1.43;1.33;;;-1.90;99.90;;;;;;4829144;29;20057;-95
2021/12/21 03:14:46;;;;;;;1.67;1.25;;;-2.10;99.90;;;;;;4828436;29;20115;-94
2021/12/21 03:17:18;;;;;;;5.00;2.20;;;-1.80;99.90;;;;;;4812646;29;20081;-95
2021/12/21 03:19:50;;;;;;;3.10;2.72;;;-2.10;99.90;;;;;;4812816;29;20306;-95
2021/12/21 03:22:17;;;;;;;1.45;1.30;;;-2.70;99.90;;;;;;4813633;29;20050;-95
2021/12/21 03:24:45;;;;;;;2.47;1.42;;;-2.30;99.90;;;;;;4801631;29;20049;-94
2021/12/21 03:27:14;;;;;;;3.80;1.98;;;-2.50;99.90;;;;;;4813228;29;20062;-96
2021/12/21 03:29:45;;;;;;;1.58;1.42;;;-2.30;99.90;;;;;;4800414;29;20210;-96
2021/12/21 03:32:10;;;;;;;1.58;1.48;;;-2.10;99.90;;;;;;4813391;29;20049;-94
2021/12/21 03:34:39;;;;;;;0.88;0.88;;;-3.00;99.90;;;;;;4813189;29;20425;-94
2021/12/21 03:37:11;;;;;;;2.13;1.27;;;-2.80;99.90;;;;;;4827688;29;20053;-95
2021/12/21 03:39:42;;;;;;;5.05;1.98;;;-1.90;99.90;;;;;;4813138;29;20061;-95
2021/12/21 03:42:22;;;;;;;;;;;;;;;;;;;;;
2021/12/21 03:44:54;;;;;;;6.30;1.63;;;-2.30;99.90;;;;;;4828102;29;20107;-95
2021/12/21 03:47:23;;;;;;;1.40;1.27;;;-3.10;99.90;;;;;;4810798;29;20111;-95
2021/12/21 03:49:55;;;;;;;1.58;1.48;;;-1.80;99.90;;;;;;4814619;29;20054;-94
2021/12/21 03:52:42;;;;;;;2.65;1.40;;;-2.90;99.90;;;;;;4813577;29;20053;-95
2021/12/21 03:55:15;;;;;;;0.88;0.82;;;-1.90;99.90;;;;;;4810829;29;20455;-96
2021/12/21 03:57:44;;;;;;;1.00;0.85;;;-3.00;99.90;;;;;;4812117;29;20084;-95
2021/12/21 04:00:17;;;;;;;0.98;0.82;;;-2.00;99.90;;;;;;4823681;29;20498;-95
2021/12/21 04:02:44;;;;;;;3.83;1.20;;;-3.00;99.90;;;;;;4810564;29;20089;-95
2021/12/21 04:05:09;;;;;;;1.65;1.52;;;-2.30;99.90;;;;;;4823603;29;20061;-95
2021/12/21 04:07:38;;;;;;;0.93;0.93;;;-3.00;99.90;;;;;;4824083;29;20560;-94
2021/12/21 04:10:05;;;;;;;1.55;1.55;;;-2.90;99.90;;;;;;4827395;29;20496;-94
2021/12/21 04:12:31;;;;;;;1.70;0.77;;;-3.00;99.90;;;;;;4812917;29;20085;-95
2021/12/21 04:15:02;;;;;;;1.00;1.00;;;-1.90;99.90;;;;;;4830759;29;20150;-96
2021/12/21 04:17:27;;;;;;;2.67;0.90;;;-2.80;99.90;;;;;;4812117;29;20117;-93
2021/12/21 04:19:56;;;;;;;5.68;2.33;;;-2.10;99.90;;;;;;4806213;29;20053;-94
2021/12/21 04:22:22;;;;;;;0.90;0.90;;;-2.50;99.90;;;;;;4812414;29;20064;-94
2021/12/21 04:24:58;;;;;;;0.98;0.98;;;-2.20;99.90;;;;;;4827795;29;20049;-93
2021/12/21 04:27:29;;;;;;;1.63;1.50;;;-2.40;99.90;;;;;;4825264;29;20050;-93
2021/12/21 04:29:57;;;;;;;2.47;1.45;;;-2.40;99.90;;;;;;4807779;29;20391;-93
2021/12/21 04:32:25;;;;;;;0.82;0.82;;;-2.10;99.90;;;;;;4811764;29;20056;-94
2021/12/21 04:34:51;;;;;;;2.72;2.00;;;-2.80;99.90;;;;;;4811917;29;20137;-94
2021/12/21 04:37:22;;;;;;;3.00;1.15;;;-2.60;99.90;;;;;;4811145;29;20141;-94
2021/12/21 04:39:59;;;;;;;1.50;1.40;;;-2.00;99.90;;;;;;4827773;29;20057;-94
2021/12/21 04:42:28;;;;;;;0.52;0.52;;;-2.00;99.90;;;;;;4812421;29;20118;-93
2021/12/21 04:44:56;;;;;;;3.72;1.45;;;-3.30;99.90;;;;;;4811823;29;20516;-93
2021/12/21 04:47:22;;;;;;;0.50;0.50;;;-2.30;99.90;;;;;;4811519;29;20068;-93
2021/12/21 04:49:47;;;;;;;14.85;1.50;;;-2.30;99.90;;;;;;4811604;29;20050;-94
2021/12/21 04:52:16;;;;;;;1.30;1.10;;;-3.30;99.90;;;;;;4817897;29;20149;-93
2021/12/21 04:54:54;;;;;;;1.02;1.00;;;-2.20;99.90;;;;;;4811842;29;20428;-93
2021/12/21 04:57:23;;;;;;;1.25;1.15;;;-2.80;99.90;;;;;;4808431;29;20082;-93
2021/12/21 04:59:57;;;;;;;0.93;0.93;;;-3.10;99.90;;;;;;4809045;29;20046;-93
2021/12/21 05:02:23;;;;;;;1.27;1.13;;;-3.10;99.90;;;;;;4811185;29;20065;-94
2021/12/21 05:04:51;;;;;;;0.60;0.60;;;-2.30;99.90;;;;;;4812358;29;20050;-93
2021/12/21 05:07:23;;;;;;;0.95;0.95;;;-3.80;99.90;;;;;;4811145;29;20057;-93
2021/12/21 05:09:56;;;;;;;1.17;1.08;;;-2.90;99.90;;;;;;4827400;29;20053;-93
2021/12/21 05:12:22;;;;;;;1.38;1.27;;;-3.10;99.90;;;;;;4817110;29;20566;-93
2021/12/21 05:14:49;;;;;;;1.70;1.20;;;-2.20;99.90;;;;;;4797139;29;20053;-93
2021/12/21 05:17:17;;;;;;;0.88;0.88;;;-3.20;99.90;;;;;;4800698;29;20070;-93
2021/12/21 05:19:48;;;;;;;0.57;0.57;;;-3.20;99.90;;;;;;4793252;29;20051;-93
2021/12/21 05:22:21;;;;;;;2.28;0.82;;;-3.20;99.90;;;;;;4785366;29;20127;-93
2021/12/21 05:24:52;;;;;;;0.80;0.77;;;-2.40;99.90;;;;;;4793896;29;20077;-93
2021/12/21 05:27:18;;;;;;;0.50;0.50;;;-2.10;99.90;;;;;;4791887;29;20084;-93
2021/12/21 05:29:46;;;;;;;0.55;0.52;;;-3.80;99.90;;;;;;4779329;29;20061;-92
2021/12/21 05:32:17;;;;;;;1.15;1.15;;;-2.90;99.90;;;;;;4788858;29;20054;-93
2021/12/21 05:34:48;;;;;;;0.57;0.57;;;-2.70;99.90;;;;;;4793487;29;20083;-94
2021/12/21 05:37:16;;;;;;;1.20;1.10;;;-2.40;99.90;;;;;;4793953;29;20046;-93
2021/12/21 05:39:55;;;;;;;1.13;1.00;;;-3.30;99.90;;;;;;4793747;29;20050;-94
2021/12/21 05:42:25;;;;;;;0.52;0.50;;;-2.50;99.90;;;;;;4779402;29;20125;-94
2021/12/21 05:44:59;;;;;;;1.70;1.58;;;-2.90;99.90;;;;;;4778615;29;20574;-94
2021/12/21 05:47:27;;;;;;;1.80;1.20;;;-2.70;99.90;;;;;;4793312;29;20051;-94
2021/12/21 05:49:53;;;;;;;1.13;1.05;;;-2.80;99.90;;;;;;4793057;29;20058;-93
2021/12/21 05:52:21;;;;;;;2.00;0.93;;;-2.50;99.90;;;;;;4792682;29;20463;-93
2021/12/21 05:54:49;;;;;;;2.05;1.45;;;-2.90;99.90;;;;;;4780652;29;20055;-95
2021/12/21 05:57:18;;;;;;;3.10;1.33;;;-3.30;99.90;;;;;;4789779;29;20097;-93
2021/12/21 05:59:46;;;;;;;1.05;1.05;;;-2.90;99.90;;;;;;4784911;29;20107;-93
2021/12/21 06:02:21;;;;;;;0.80;0.80;;;-2.20;99.90;;;;;;4784538;29;20089;-94
2021/12/21 06:04:52;;;;;;;2.08;1.92;;;-3.90;99.90;;;;;;4792864;29;20502;-94
2021/12/21 06:07:21;;;;;;;1.58;1.10;;;-2.50;99.90;;;;;;4793076;29;20141;-94
2021/12/21 06:09:49;;;;;;;1.13;0.90;;;-3.30;99.90;;;;;;4792968;29;20138;-94
2021/12/21 06:12:42;;;;;;;4.45;1.48;;;-2.60;99.90;;;;;;4784245;29;20051;-94
2021/12/21 06:26:03;;;;;;;1.30;0.80;;;-3.50;99.90;;;;;;4830240;29;20140;-94
2021/12/21 06:28:31;;;;;;;0.80;0.80;;;-3.40;99.90;;;;;;4813640;29;20041;-93
2021/12/21 06:30:57;;;;;;;0.68;0.68;;;-3.50;99.90;;;;;;4814560;29;20058;-94
2021/12/21 06:33:26;;;;;;;1.83;1.15;;;-3.50;99.90;;;;;;4813816;29;20048;-94
2021/12/21 06:35:52;;;;;;;1.30;0.73;;;-4.20;99.90;;;;;;4803705;29;20085;-94
2021/12/21 06:38:33;;;;;;;1.50;0.75;;;-3.40;99.90;;;;;;4813594;29;20099;-95
2021/12/21 06:40:59;;;;;;;1.17;1.05;;;-2.90;99.90;;;;;;4800441;29;20570;-94
2021/12/21 06:43:39;;;;;;;4.43;1.65;;;-3.60;99.90;;;;;;4813503;29;20050;-93
2021/12/21 06:46:41;;;;;;;3.58;1.02;;;-3.60;99.90;;;;;;4806134;29;20046;-95
2021/12/21 06:52:12;;;;;;;2.55;2.05;;;-3.60;99.90;;;;;;4792204;29;20050;-94
2021/12/21 06:54:38;;;;;;;1.45;1.33;;;-3.50;99.90;;;;;;4813953;29;20062;-94
2021/12/21 06:57:20;;;;;;;;;;;;;;;;;;;;;
2021/12/21 06:59:47;;;;;;;1.77;1.20;;;-3.50;99.90;;;;;;4829858;29;20053;-95
2021/12/21 07:02:13;;;;;;;1.40;1.30;;;-3.50;99.90;;;;;;4830642;29;20137;-93
2021/12/21 07:04:48;;;;;;;3.42;1.40;;;-3.50;99.90;;;;;;4813626;29;20726;-93
2021/12/21 07:07:16;;;;;;;3.55;3.08;;;-3.50;99.90;;;;;;4813772;29;20501;-91
2021/12/21 07:09:59;;;;;;;1.90;1.85;;;-3.50;99.90;;;;;;4828194;29;20060;-93
2021/12/21 07:19:14;;;;;;;9.07;1.67;;;-3.50;99.90;;;;;;4763936;29;20060;-91
2021/12/21 07:21:47;;;;;;;4.00;1.55;;;-4.40;99.90;;;;;;4826240;29;20097;-95
2021/12/21 07:27:02;;;;;;;1.70;1.38;;;-3.60;99.90;;;;;;5596821;24;20062;-95
2021/12/21 07:32:06;;;;;;;3.97;1.60;;;-3.60;99.90;;;;;;5384688;24;20280;-87
2021/12/21 07:34:32;;;;;;;5.32;1.65;;;-3.60;99.90;;;;;;4813505;29;20061;-88
2021/12/21 07:36:58;;;;;;;4.43;3.05;;;-2.90;99.90;;;;;;4813252;29;20069;-90
2021/12/21 07:39:39;;;;;;;1.80;1.70;;;-3.70;99.90;;;;;;4841104;29;20038;-95
2021/12/21 07:42:19;;;;;;;1.38;1.30;;;-2.90;99.90;;;;;;4818135;29;20060;-93
2021/12/21 07:45:08;;;;;;;1.02;1.02;;;-3.60;99.90;;;;;;4806046;29;20049;-92
2021/12/21 07:47:47;;;;;;;;;;;;;;;;;;;;;
2021/12/21 07:50:21;;;;;;;2.28;1.80;;;-3.50;99.90;;;;;;4836161;29;20046;-91
2021/12/21 07:52:55;;;;;;;1.95;1.20;;;-3.50;99.90;;;;;;4821113;29;20488;-92
2021/12/21 07:55:31;;;;;;;2.38;1.17;;;-3.50;99.90;;;;;;4814267;29;20102;-91
2021/12/21 07:58:09;;;;;;;1.63;1.08;;;-3.50;99.90;;;;;;4841847;29;20090;-92
2021/12/21 08:00:37;;;;;;;0.90;0.90;;;-3.50;99.90;;;;;;4823779;29;20047;-91
2021/12/21 08:03:15;;;;;;;1.55;1.45;;;-3.50;99.90;;;;;;4820127;29;20049;-93
2021/12/21 08:06:38;;;;;;;3.58;1.55;;;-3.60;99.90;;;;;;4818481;29;20046;-93
2021/12/21 08:20:48;;;;;;;1.33;1.25;;;-2.90;99.90;;;;;;4532889;31;20273;-88
2021/12/21 08:23:14;;;;;;;1.08;1.00;;;-1.80;99.90;;;;;;4549386;31;20082;-88
2021/12/21 08:25:42;;;;;;;3.75;1.33;;;-0.60;99.90;;;;;;4631703;30;20085;-87
2021/12/21 08:28:11;;;;;;;1.92;1.40;;;-1.60;99.90;;;;;;4784876;29;20058;-87
2021/12/21 08:30:40;;;;;;;3.88;1.90;;;-1.80;99.90;;;;;;4810734;29;20052;-88
2021/12/21 08:33:21;;;;;;;;;;;;;;;;;;;;;
2021/12/21 08:35:47;;;;;;;1.98;1.42;;;-1.40;99.90;;;;;;4799197;29;20141;-88
2021/12/21 08:38:16;;;;;;;1.63;1.33;;;-1.10;99.90;;;;;;4819355;29;20488;-88
2021/12/21 08:40:49;;;;;;;2.80;1.83;;;-0.30;99.90;;;;;;4816218;29;20452;-88
2021/12/21 08:43:23;;;;;;;3.10;1.40;;;0.30;99.90;;;;;;4809361;29;20045;-88
2021/12/21 08:45:57;;;;;;;1.48;1.38;;;0.40;99.90;;;;;;4823865;29;20524;-88
2021/12/21 08:48:26;;;;;;;13.95;3.72;;;0.90;99.90;;;;;;4811458;29;20085;-88
2021/12/21 08:50:55;;;;;;;1.58;1.48;;;-0.20;99.90;;;;;;4808841;29;20056;-89
2021/12/21 08:53:22;;;;;;;4.57;2.20;;;0.90;99.90;;;;;;4824750;29;20114;-89
2021/12/21 08:55:51;;;;;;;6.88;2.70;;;1.30;99.90;;;;;;4820065;29;20154;-88
2021/12/21 08:58:17;;;;;;;3.65;2.38;;;1.30;99.90;;;;;;4823902;29;20137;-91
2021/12/21 09:00:43;;;;;;;2.43;1.97;;;1.40;99.90;;;;;;4824421;29;20046;-90
2021/12/21 09:03:11;;;;;;;10.07;4.22;;;0.90;99.90;;;;;;4824957;29;20125;-88
2021/12/21 09:05:40;;;;;;;5.78;2.47;;;2.10;99.90;;;;;;4810907;29;20050;-88
2021/12/21 09:08:10;;;;;;;3.92;2.85;;;2.50;99.90;;;;;;4808365;29;20494;-92
2021/12/21 09:10:42;;;;;;;9.70;3.13;;;2.90;99.90;;;;;;4811031;29;20046;-88
2021/12/21 09:13:11;;;;;;;5.03;2.70;;;2.10;99.90;;;;;;4823096;29;20547;-89
2021/12/21 09:15:38;;;;;;;9.18;3.33;;;2.80;99.90;;;;;;4809588;29;20056;-88
2021/12/21 09:18:05;;;;;;;6.18;3.63;;;3.60;99.90;;;;;;4808704;29;20069;-87
2021/12/21 09:20:34;;;;;;;7.07;3.90;;;2.40;99.90;;;;;;4809137;29;20049;-90
2021/12/21 09:23:03;;;;;;;5.85;4.20;;;3.80;99.90;;;;;;4819027;29;20054;-88
2021/12/21 09:25:29;;;;;;;7.55;3.67;;;3.70;99.90;;;;;;4808324;29;20096;-89
2021/12/21 09:27:58;;;;;;;7.65;4.38;;;2.50;99.90;;;;;;4808385;29;20046;-89
2021/12/21 09:30:26;;;;;;;5.30;4.40;;;3.00;99.90;;;;;;4823135;29;20505;-88
2021/12/21 09:32:52;;;;;;;5.90;4.70;;;2.30;99.90;;;;;;4821375;29;20058;-88
2021/12/21 09:35:19;;;;;;;4.88;3.55;;;3.40;99.90;;;;;;4816921;29;20060;-87
2021/12/21 09:37:46;;;;;;;6.43;3.35;;;3.40;99.90;;;;;;4818472;29;20054;-88
2021/12/21 09:40:14;;;;;;;;;;;2.10;99.90;;;;;;4806446;29;20061;-86
2021/12/21 09:42:43;;;;;;;4.95;3.28;;;1.90;99.90;;;;;;4822845;29;19924;-88
2021/12/21 09:45:12;;;;;;;8.30;4.13;;;3.20;99.90;;;;;;4820618;29;20056;-87
2021/12/21 09:47:38;;;;;;;7.28;3.47;;;2.50;99.90;;;;;;4820824;29;20053;-88
2021/12/21 09:50:07;;;;;;;7.68;5.20;;;2.20;99.90;;;;;;4806531;29;20310;-88
2021/12/21 09:52:35;;;;;;;6.85;3.88;;;2.40;99.90;;;;;;4821475;29;20054;-87
2021/12/21 09:55:04;;;;;;;9.07;5.40;;;2.60;99.90;;;;;;4806122;29;20053;-88
2021/12/21 09:57:30;;;;;;;5.93;3.85;;;2.70;99.90;;;;;;4817762;29;20059;-87
2021/12/21 09:59:59;;;;;;;11.48;4.95;;;3.50;99.90;;;;;;4796550;29;20119;-93
2021/12/21 10:02:26;;;;;;;8.75;5.05;;;2.70;99.90;;;;;;4814471;29;20303;-91
2021/12/21 10:04:57;;;;;;;5.65;4.25;;;2.60;99.90;;;;;;4803274;29;20077;-91
2021/12/21 10:07:25;;;;;;;7.47;5.22;;;3.90;99.90;;;;;;4821020;29;20047;-90
2021/12/21 10:10:04;;;;;;;10.48;4.80;;;3.80;99.90;;;;;;4811900;29;20082;-91
2021/12/21 10:12:38;;;;;;;8.43;5.35;;;2.80;99.90;;;;;;4830719;29;20133;-96
2021/12/21 10:15:18;;;;;;;10.35;5.53;;;3.20;99.90;;;;;;4823365;29;20051;-89
2021/12/21 10:17:57;;;;;;;5.28;4.35;;;3.00;99.90;;;;;;4821925;29;20125;-89
2021/12/21 10:20:40;;;;;;;9.57;4.10;;;4.20;99.90;;;;;;4811522;29;20050;-89
2021/12/21 10:23:11;;;;;;;6.75;5.03;;;3.30;99.90;;;;;;4833076;29;20492;-88
2021/12/21 10:26:12;;;;;;;7.53;4.63;;;3.50;99.90;;;;;;4827577;29;20041;-89
2021/12/21 10:28:43;;;;;;;6.65;4.72;;;3.70;99.90;;;;;;4829005;29;20058;-88
2021/12/21 10:31:36;;;;;;;7.00;4.22;;;3.80;99.90;;;;;;4828379;29;20053;-88
2021/12/21 10:34:05;;;;;;;7.50;4.70;;;4.00;99.90;;;;;;4791491;29;20055;-88
2021/12/21 10:36:39;;;;;;;6.25;3.88;;;4.20;99.90;;;;;;4796641;29;20058;-88
2021/12/21 10:39:43;;;;;;;5.90;4.50;;;4.50;99.90;;;;;;4809444;29;20042;-88
2021/12/21 10:42:16;;;;;;;7.28;4.47;;;5.40;99.90;;;;;;4806580;29;20526;-89
2021/12/21 10:45:11;;;;;;;4.25;3.83;;;4.90;99.90;;;;;;4796350;29;20473;-89
2021/12/21 10:47:55;;;;;;;8.40;3.83;;;5.20;99.90;;;;;;4715135;30;20072;-88
2021/12/21 10:51:08;;;;;;;5.20;3.22;;;5.60;99.90;;;;;;4799316;29;20122;-88
2021/12/21 11:02:20;;;;;;;5.05;3.70;;;6.30;99.90;;;;;;4604478;30;20127;-89
2021/12/21 11:04:54;;;;;;;6.25;3.85;;;7.10;99.90;;;;;;4676875;30;20062;-89
2021/12/21 11:07:54;;;;;;;3.95;3.40;;;7.40;99.90;;;;;;4692011;30;20122;-88
2021/12/21 11:10:44;;;;;;;;;;;;;;;;;;;;;
2021/12/21 11:13:30;;;;;;;3.97;3.22;;;7.90;99.90;;;;;;4771898;30;20065;-89
2021/12/21 11:15:57;;;;;;;4.70;3.33;;;8.10;99.90;;;;;;4783426;30;20112;-93
2021/12/21 11:18:25;;;;;;;7.45;3.20;;;7.90;99.90;;;;;;4783741;30;20172;-89
2021/12/21 11:20:55;;;;;;;5.20;3.25;;;8.70;99.90;;;;;;4775922;30;20456;-89
2021/12/21 11:23:24;;;;;;;5.75;3.28;;;9.00;99.90;;;;;;4784867;30;20147;-88
2021/12/21 11:25:56;;;;;;;5.38;3.10;;;9.30;99.90;;;;;;4787236;30;20047;-89
2021/12/21 11:28:29;;;;;;;5.75;3.45;;;9.60;99.90;;;;;;4801786;29;20074;-88
2021/12/21 11:31:00;;;;;;;5.05;3.20;;;9.90;99.90;;;;;;4781344;30;20090;-88
2021/12/21 11:33:29;;;;;;;3.47;3.00;;;10.20;99.90;;;;;;4804176;29;20061;-86
2021/12/21 11:39:06;;;;;;;4.72;2.63;;;10.40;99.90;;;;;;4826296;29;20046;-87
2021/12/21 11:41:32;;;;;;;4.68;2.78;;;10.50;99.90;;;;;;4807313;29;20054;-91
2021/12/21 11:44:43;;;;;;;5.03;2.90;;;10.60;99.90;;;;;;4814687;29;20582;-96
2021/12/21 11:47:22;;;;;;;3.00;2.70;;;10.10;83.30;;;;;;4814166;29;20054;-96
2021/12/21 11:49:59;;;;;;;2.97;2.65;;;10.50;90.80;;;;;;4807368;29;20073;-90
2021/12/21 11:53:18;;;;;;;3.08;2.63;;;10.80;92.70;;;;;;4822205;29;20072;-89
2021/12/21 11:55:47;;;;;;;7.20;3.13;;;10.80;76.70;;;;;;4800952;29;20062;-90
2021/12/21 11:58:19;;;;;;;3.85;2.90;;;10.80;96.20;;;;;;4811363;29;20129;-90
2021/12/21 12:00:49;;;;;;;4.75;2.78;;;10.80;81.10;;;;;;4825897;29;20054;-90
2021/12/21 12:03:22;;;;;;;5.70;3.08;;;10.90;91.90;;;;;;4838230;29;20042;-89
2021/12/21 12:06:01;;;;;;;4.60;2.40;;;10.90;85.20;;;;;;4811319;29;20049;-85
2021/12/21 12:08:43;;;;;;;2.75;2.13;;;10.90;88.80;;;;;;4824506;29;20133;-89
2021/12/21 12:11:35;;;;;;;4.13;2.80;;;10.90;96.60;;;;;;4809265;29;20057;-93
2021/12/21 12:14:12;;;;;;;2.72;2.13;;;11.00;76.20;;;;;;4809408;29;20053;-91
2021/12/21 12:16:42;;;;;;;3.50;2.20;;;10.90;79.00;;;;;;4824303;29;20089;-87
2021/12/21 12:19:15;;;;;;;4.68;2.22;;;11.00;80.20;;;;;;4838946;29;20050;-90
2021/12/21 12:21:54;;;;;;;3.78;2.30;;;11.00;83.20;;;;;;4822431;29;20046;-88
2021/12/21 12:24:25;;;;;;;3.75;2.30;;;11.00;73.20;;;;;;4822197;29;20057;-88
2021/12/21 12:27:02;;;;;;;2.70;2.50;;;11.00;90.60;;;;;;4808862;29;20086;-88
2021/12/21 12:29:31;;;;;;;2.88;2.17;;;11.10;74.90;;;;;;4827480;29;20050;-89
2021/12/21 12:32:00;;;;;;;3.30;2.70;;;11.10;89.90;;;;;;4841380;29;20523;-89
2021/12/21 12:34:29;;;;;;;3.30;2.90;;;11.10;85.60;;;;;;4810533;29;20157;-90
2021/12/21 12:37:01;;;;;;;3.72;2.30;;;11.30;83.50;;;;;;4826535;29;20042;-90
2021/12/21 12:39:33;;;;;;;4.55;2.95;;;11.20;81.70;;;;;;4810580;29;20042;-89
2021/12/21 12:42:08;;;;;;;4.65;2.72;;;11.20;78.90;;;;;;4825213;29;20505;-89
2021/12/21 12:44:49;;;;;;;4.78;3.13;;;11.20;76.70;;;;;;4811425;29;20129;-89
2021/12/21 12:47:18;;;;;;;2.95;1.90;;;11.10;83.30;;;;;;4810764;29;20041;-90
2021/12/21 12:49:54;;;;;;;3.50;2.63;;;11.00;86.90;;;;;;4825952;29;20102;-90
2021/12/21 12:52:28;;;;;;;3.88;2.00;;;11.00;84.20;;;;;;4831136;29;20054;-89
2021/12/21 12:55:02;;;;;;;3.75;2.25;;;10.70;90.40;;;;;;4811071;29;20157;-90
2021/12/21 12:57:35;;;;;;;3.08;2.30;;;10.70;85.40;;;;;;4810317;29;20046;-89
2021/12/21 13:00:19;;;;;;;3.13;2.50;;;10.60;91.00;;;;;;4818939;29;20065;-90
2021/12/21 13:03:21;;;;;;;2.90;2.35;;;10.60;76.80;;;;;;4823414;29;20498;-90
2021/12/21 13:05:56;;;;;;;3.90;2.22;;;10.50;82.40;;;;;;4837031;29;20062;-90
2021/12/21 13:08:30;;;;;;;3.13;2.05;;;9.90;94.20;;;;;;4807152;29;20133;-90
2021/12/21 13:10:58;;;;;;;2.63;2.20;;;10.50;96.00;;;;;;4814144;29;20141;-90
2021/12/21 13:13:53;;;;;;;3.88;2.28;;;10.20;93.80;;;;;;4829433;29;20047;-90
2021/12/21 13:16:27;;;;;;;2.33;1.98;;;10.20;75.10;;;;;;4830131;29;20081;-90
2021/12/21 13:19:02;;;;;;;3.30;2.33;;;10.10;93.50;;;;;;4822756;29;20553;-90
2021/12/21 13:21:51;;;;;;;4.68;2.20;;;10.00;95.90;;;;;;4824220;29;20050;-90
2021/12/21 13:24:46;;;;;;;3.33;1.73;;;10.00;97.30;;;;;;4824060;29;20068;-90
2021/12/21 13:27:30;;;;;;;4.47;1.90;;;10.00;75.70;;;;;;4825451;29;20455;-90
2021/12/21 13:29:57;;;;;;;2.80;2.45;;;10.50;99.90;;;;;;4824708;29;20057;-90
2021/12/21 13:32:23;;;;;;;4.65;2.63;;;9.90;99.90;;;;;;4824595;29;20098;-89
2021/12/21 13:35:26;;;;;;;;;;;;;;;;;;;;;
2021/12/21 13:38:05;;;;;;;5.90;2.38;;;9.30;98.80;;;;;;4844999;29;20502;-90
2021/12/21 13:40:33;;;;;;;2.58;2.20;;;9.90;99.90;;;;;;4810995;29;20046;-90
2021/12/21 13:42:59;;;;;;;4.32;2.67;;;9.70;99.90;;;;;;4808805;29;20058;-90
2021/12/21 13:45:24;;;;;;;3.53;1.80;;;9.60;99.90;;;;;;4805420;29;20045;-90
2021/12/21 13:48:12;;;;;;;4.83;2.60;;;9.40;99.90;;;;;;4805857;29;20406;-89
2021/12/21 13:51:10;;;;;;;2.83;2.42;;;9.30;98.00;;;;;;4803279;29;20073;-89
2021/12/21 14:00:53;;;;;;;3.67;1.92;;;9.00;93.00;;;;;;4844443;29;20046;-90
2021/12/21 14:10:09;;;;;;;4.95;2.20;;;9.00;87.30;;;;;;4825483;29;20111;-90
2021/12/21 14:20:57;;;;;;;6.57;2.65;;;8.20;91.30;;;;;;4740892;29;20064;-89
2021/12/21 14:23:26;;;;;;;3.47;2.30;;;7.80;91.90;;;;;;4796636;29;20417;-92
2021/12/21 14:26:34;;;;;;;3.50;2.20;;;7.50;99.90;;;;;;4826482;29;20054;-90
2021/12/21 14:29:14;;;;;;;3.28;2.60;;;7.30;92.90;;;;;;4811243;29;20106;-88
2021/12/21 14:31:53;;;;;;;6.82;3.00;;;7.00;95.90;;;;;;4827279;29;20041;-89
2021/12/21 14:34:28;;;;;;;3.20;2.45;;;7.50;97.80;;;;;;4828309;29;20053;-89
2021/12/21 14:37:07;;;;;;;3.45;2.63;;;6.70;98.40;;;;;;4817341;29;20056;-90
2021/12/21 14:39:33;;;;;;;6.63;2.53;;;6.50;99.90;;;;;;4812287;29;20046;-87
2021/12/21 14:42:04;;;;;;;5.55;3.38;;;6.40;99.90;;;;;;4828288;29;20097;-88
2021/12/21 14:44:33;;;;;;;7.53;2.47;;;6.30;99.90;;;;;;4826357;29;20140;-89
2021/12/21 14:47:09;;;;;;;3.13;2.83;;;6.30;99.90;;;;;;4811730;29;20398;-89
2021/12/21 14:49:54;;;;;;;5.63;3.33;;;6.00;99.90;;;;;;4827163;29;20054;-88
2021/12/21 14:52:39;;;;;;;4.90;2.83;;;7.10;99.90;;;;;;4807655;29;20061;-87
2021/12/21 14:55:14;;;;;;;2.90;2.30;;;5.90;99.90;;;;;;4827609;29;20109;-87
2021/12/21 14:57:46;;;;;;;4.32;3.25;;;5.80;99.90;;;;;;4811036;29;20498;-87
2021/12/21 15:00:25;;;;;;;5.63;2.83;;;6.30;99.90;;;;;;4827874;29;20057;-87
2021/12/21 15:02:53;;;;;;;3.13;2.67;;;5.60;99.90;;;;;;4827147;29;20057;-87
2021/12/21 15:05:29;;;;;;;6.05;3.35;;;5.40;99.90;;;;;;4814069;29;20046;-87
2021/12/21 15:07:56;;;;;;;5.47;2.80;;;5.30;99.90;;;;;;4818177;29;20058;-88
2021/12/21 15:10:24;;;;;;;4.80;2.80;;;5.10;99.90;;;;;;4849976;29;20134;-87